sensor_id;sensor_type;location;lat;lon;timestamp;P1;durP1;ratioP1;P2;durP2;ratioP2
39620;SDS011;25309;48.686;9.170;2023-08-12T00:01:53;6.00;;;3.73;;
39620;SDS011;25309;48.686;9.170;2023-08-12T00:04:20;4.10;;;3.53;;
39620;SDS011;25309;48.686;9.170;2023-08-12T00:06:47;7.20;;;3.83;;
39620;SDS011;25309;48.686;9.170;2023-08-12T00:09:14;5.20;;;3.60;;
39620;SDS011;25309;48.686;9.170;2023-08-12T00:11:41;5.50;;;3.77;;
39620;SDS011;25309;48.686;9.170;2023-08-12T00:14:08;5.47;;;4.10;;
39620;SDS011;25309;48.686;9.170;2023-08-12T00:16:35;5.17;;;3.60;;
39620;SDS011;25309;48.686;9.170;2023-08-12T00:19:04;3.93;;;3.20;;
39620;SDS011;25309;48.686;9.170;2023-08-12T00:21:31;5.30;;;4.00;;
39620;SDS011;25309;48.686;9.170;2023-08-12T00:23:58;4.57;;;3.40;;
39620;SDS011;25309;48.686;9.170;2023-08-12T00:26:25;4.60;;;3.57;;
39620;SDS011;25309;48.686;9.170;2023-08-12T00:28:53;4.63;;;3.60;;
39620;SDS011;25309;48.686;9.170;2023-08-12T00:31:20;5.40;;;3.37;;
39620;SDS011;25309;48.686;9.170;2023-08-12T00:33:47;4.63;;;3.70;;
39620;SDS011;25309;48.686;9.170;2023-08-12T00:36:15;4.43;;;3.60;;
39620;SDS011;25309;48.686;9.170;2023-08-12T00:38:42;5.73;;;3.90;;
39620;SDS011;25309;48.686;9.170;2023-08-12T00:41:09;4.30;;;3.60;;
39620;SDS011;25309;48.686;9.170;2023-08-12T00:43:36;4.37;;;3.63;;
39620;SDS011;25309;48.686;9.170;2023-08-12T00:46:03;5.40;;;3.60;;
39620;SDS011;25309;48.686;9.170;2023-08-12T00:48:31;4.90;;;4.27;;
39620;SDS011;25309;48.686;9.170;2023-08-12T00:50:58;4.40;;;3.87;;
39620;SDS011;25309;48.686;9.170;2023-08-12T00:53:27;4.93;;;4.43;;
39620;SDS011;25309;48.686;9.170;2023-08-12T00:55:54;4.90;;;3.80;;
39620;SDS011;25309;48.686;9.170;2023-08-12T00:58:22;5.27;;;3.70;;
39620;SDS011;25309;48.686;9.170;2023-08-12T01:00:49;5.27;;;3.80;;
39620;SDS011;25309;48.686;9.170;2023-08-12T01:03:17;5.53;;;3.73;;
39620;SDS011;25309;48.686;9.170;2023-08-12T01:05:46;5.03;;;3.50;;
39620;SDS011;25309;48.686;9.170;2023-08-12T01:08:13;5.47;;;3.90;;
39620;SDS011;25309;48.686;9.170;2023-08-12T01:10:43;4.23;;;3.57;;
39620;SDS011;25309;48.686;9.170;2023-08-12T01:13:17;4.10;;;3.70;;
39620;SDS011;25309;48.686;9.170;2023-08-12T01:15:51;4.30;;;3.83;;
39620;SDS011;25309;48.686;9.170;2023-08-12T01:18:22;4.43;;;3.60;;
39620;SDS011;25309;48.686;9.170;2023-08-12T01:20:52;5.20;;;3.90;;
39620;SDS011;25309;48.686;9.170;2023-08-12T01:23:21;4.70;;;4.10;;
39620;SDS011;25309;48.686;9.170;2023-08-12T01:25:48;6.00;;;4.50;;
39620;SDS011;25309;48.686;9.170;2023-08-12T01:28:15;5.83;;;4.53;;
39620;SDS011;25309;48.686;9.170;2023-08-12T01:30:44;6.13;;;4.60;;
39620;SDS011;25309;48.686;9.170;2023-08-12T01:33:18;5.90;;;4.23;;
39620;SDS011;25309;48.686;9.170;2023-08-12T01:35:50;6.40;;;4.50;;
39620;SDS011;25309;48.686;9.170;2023-08-12T01:38:23;6.03;;;4.77;;
39620;SDS011;25309;48.686;9.170;2023-08-12T01:40:53;6.20;;;4.23;;
39620;SDS011;25309;48.686;9.170;2023-08-12T01:43:21;5.87;;;4.67;;
39620;SDS011;25309;48.686;9.170;2023-08-12T01:45:49;5.93;;;4.30;;
39620;SDS011;25309;48.686;9.170;2023-08-12T01:48:16;7.87;;;4.07;;
39620;SDS011;25309;48.686;9.170;2023-08-12T01:50:46;6.03;;;4.27;;
39620;SDS011;25309;48.686;9.170;2023-08-12T01:53:14;5.67;;;4.23;;
39620;SDS011;25309;48.686;9.170;2023-08-12T01:55:43;6.40;;;4.43;;
39620;SDS011;25309;48.686;9.170;2023-08-12T01:58:11;4.77;;;4.27;;
39620;SDS011;25309;48.686;9.170;2023-08-12T02:00:38;6.40;;;4.30;;
39620;SDS011;25309;48.686;9.170;2023-08-12T02:03:05;7.07;;;4.50;;
39620;SDS011;25309;48.686;9.170;2023-08-12T02:05:33;4.90;;;4.40;;
39620;SDS011;25309;48.686;9.170;2023-08-12T02:08:01;6.00;;;4.40;;
39620;SDS011;25309;48.686;9.170;2023-08-12T02:10:28;7.13;;;4.63;;
39620;SDS011;25309;48.686;9.170;2023-08-12T02:12:56;4.80;;;4.20;;
39620;SDS011;25309;48.686;9.170;2023-08-12T02:15:23;5.87;;;4.40;;
39620;SDS011;25309;48.686;9.170;2023-08-12T02:17:50;5.53;;;4.27;;
39620;SDS011;25309;48.686;9.170;2023-08-12T02:20:17;6.37;;;4.80;;
39620;SDS011;25309;48.686;9.170;2023-08-12T02:22:44;7.60;;;4.70;;
39620;SDS011;25309;48.686;9.170;2023-08-12T02:25:11;5.37;;;4.47;;
39620;SDS011;25309;48.686;9.170;2023-08-12T02:27:39;5.17;;;4.50;;
39620;SDS011;25309;48.686;9.170;2023-08-12T02:30:07;7.33;;;4.33;;
39620;SDS011;25309;48.686;9.170;2023-08-12T02:32:35;4.87;;;4.17;;
39620;SDS011;25309;48.686;9.170;2023-08-12T02:35:03;6.63;;;4.40;;
39620;SDS011;25309;48.686;9.170;2023-08-12T02:37:30;6.10;;;4.70;;
39620;SDS011;25309;48.686;9.170;2023-08-12T02:39:57;5.57;;;4.50;;
39620;SDS011;25309;48.686;9.170;2023-08-12T02:42:24;5.90;;;4.53;;
39620;SDS011;25309;48.686;9.170;2023-08-12T02:44:52;6.70;;;3.97;;
39620;SDS011;25309;48.686;9.170;2023-08-12T02:47:20;6.97;;;4.77;;
39620;SDS011;25309;48.686;9.170;2023-08-12T02:49:47;6.63;;;4.40;;
39620;SDS011;25309;48.686;9.170;2023-08-12T02:52:14;6.07;;;4.50;;
39620;SDS011;25309;48.686;9.170;2023-08-12T02:54:41;5.37;;;4.37;;
39620;SDS011;25309;48.686;9.170;2023-08-12T02:57:08;5.57;;;4.83;;
39620;SDS011;25309;48.686;9.170;2023-08-12T02:59:36;4.80;;;4.20;;
39620;SDS011;25309;48.686;9.170;2023-08-12T03:02:02;5.10;;;4.40;;
39620;SDS011;25309;48.686;9.170;2023-08-12T03:04:31;5.10;;;4.60;;
39620;SDS011;25309;48.686;9.170;2023-08-12T03:06:58;6.03;;;4.80;;
39620;SDS011;25309;48.686;9.170;2023-08-12T03:09:25;4.93;;;4.43;;
39620;SDS011;25309;48.686;9.170;2023-08-12T03:11:52;5.57;;;4.80;;
39620;SDS011;25309;48.686;9.170;2023-08-12T03:14:20;6.27;;;4.60;;
39620;SDS011;25309;48.686;9.170;2023-08-12T03:16:46;6.47;;;4.70;;
39620;SDS011;25309;48.686;9.170;2023-08-12T03:19:13;5.43;;;4.27;;
39620;SDS011;25309;48.686;9.170;2023-08-12T03:21:43;5.47;;;4.53;;
39620;SDS011;25309;48.686;9.170;2023-08-12T03:24:10;5.83;;;4.57;;
39620;SDS011;25309;48.686;9.170;2023-08-12T03:26:37;6.37;;;4.60;;
39620;SDS011;25309;48.686;9.170;2023-08-12T03:29:05;6.10;;;4.60;;
39620;SDS011;25309;48.686;9.170;2023-08-12T03:31:34;5.50;;;4.27;;
39620;SDS011;25309;48.686;9.170;2023-08-12T03:34:01;5.73;;;4.80;;
39620;SDS011;25309;48.686;9.170;2023-08-12T03:36:30;5.07;;;3.93;;
39620;SDS011;25309;48.686;9.170;2023-08-12T03:38:59;5.67;;;4.40;;
39620;SDS011;25309;48.686;9.170;2023-08-12T03:41:28;4.83;;;4.33;;
39620;SDS011;25309;48.686;9.170;2023-08-12T03:44:02;4.33;;;3.90;;
39620;SDS011;25309;48.686;9.170;2023-08-12T03:46:29;6.23;;;4.70;;
39620;SDS011;25309;48.686;9.170;2023-08-12T03:48:56;4.93;;;4.43;;
39620;SDS011;25309;48.686;9.170;2023-08-12T03:51:23;5.40;;;4.20;;
39620;SDS011;25309;48.686;9.170;2023-08-12T03:53:50;5.30;;;4.53;;
39620;SDS011;25309;48.686;9.170;2023-08-12T03:56:18;5.23;;;4.17;;
39620;SDS011;25309;48.686;9.170;2023-08-12T03:58:46;5.60;;;4.20;;
39620;SDS011;25309;48.686;9.170;2023-08-12T04:01:13;4.77;;;4.03;;
39620;SDS011;25309;48.686;9.170;2023-08-12T04:03:40;5.60;;;4.37;;
39620;SDS011;25309;48.686;9.170;2023-08-12T04:06:07;6.13;;;4.40;;
39620;SDS011;25309;48.686;9.170;2023-08-12T04:08:34;5.37;;;4.63;;
39620;SDS011;25309;48.686;9.170;2023-08-12T04:11:01;5.43;;;4.07;;
39620;SDS011;25309;48.686;9.170;2023-08-12T04:13:29;4.90;;;4.37;;
39620;SDS011;25309;48.686;9.170;2023-08-12T04:15:56;5.33;;;4.47;;
39620;SDS011;25309;48.686;9.170;2023-08-12T04:18:24;5.80;;;4.57;;
39620;SDS011;25309;48.686;9.170;2023-08-12T04:20:52;6.87;;;4.27;;
39620;SDS011;25309;48.686;9.170;2023-08-12T04:23:19;5.83;;;4.60;;
39620;SDS011;25309;48.686;9.170;2023-08-12T04:25:47;7.50;;;4.63;;
39620;SDS011;25309;48.686;9.170;2023-08-12T04:28:15;5.93;;;4.63;;
39620;SDS011;25309;48.686;9.170;2023-08-12T04:30:44;5.50;;;4.13;;
39620;SDS011;25309;48.686;9.170;2023-08-12T04:33:14;5.20;;;4.10;;
39620;SDS011;25309;48.686;9.170;2023-08-12T04:35:41;5.67;;;4.50;;
39620;SDS011;25309;48.686;9.170;2023-08-12T04:38:09;5.23;;;4.23;;
39620;SDS011;25309;48.686;9.170;2023-08-12T04:40:38;7.73;;;4.47;;
39620;SDS011;25309;48.686;9.170;2023-08-12T04:43:07;6.30;;;4.50;;
39620;SDS011;25309;48.686;9.170;2023-08-12T04:45:34;6.23;;;4.47;;
39620;SDS011;25309;48.686;9.170;2023-08-12T04:48:04;4.33;;;3.93;;
39620;SDS011;25309;48.686;9.170;2023-08-12T04:50:34;4.77;;;4.27;;
39620;SDS011;25309;48.686;9.170;2023-08-12T04:53:01;4.37;;;3.97;;
39620;SDS011;25309;48.686;9.170;2023-08-12T04:55:29;5.00;;;4.20;;
39620;SDS011;25309;48.686;9.170;2023-08-12T04:57:56;4.90;;;3.97;;
39620;SDS011;25309;48.686;9.170;2023-08-12T05:00:23;5.00;;;4.50;;
39620;SDS011;25309;48.686;9.170;2023-08-12T05:02:51;5.93;;;4.37;;
39620;SDS011;25309;48.686;9.170;2023-08-12T05:05:20;5.93;;;4.70;;
39620;SDS011;25309;48.686;9.170;2023-08-12T05:07:47;6.37;;;4.80;;
39620;SDS011;25309;48.686;9.170;2023-08-12T05:10:17;7.97;;;4.87;;
39620;SDS011;25309;48.686;9.170;2023-08-12T05:12:44;5.30;;;4.60;;
39620;SDS011;25309;48.686;9.170;2023-08-12T05:15:13;7.37;;;5.13;;
39620;SDS011;25309;48.686;9.170;2023-08-12T05:17:42;5.30;;;4.80;;
39620;SDS011;25309;48.686;9.170;2023-08-12T05:20:10;6.30;;;4.23;;
39620;SDS011;25309;48.686;9.170;2023-08-12T05:22:39;4.80;;;4.20;;
39620;SDS011;25309;48.686;9.170;2023-08-12T05:25:06;5.83;;;4.73;;
39620;SDS011;25309;48.686;9.170;2023-08-12T05:27:34;5.10;;;4.20;;
39620;SDS011;25309;48.686;9.170;2023-08-12T05:30:01;5.13;;;4.50;;
39620;SDS011;25309;48.686;9.170;2023-08-12T05:32:28;6.63;;;5.00;;
39620;SDS011;25309;48.686;9.170;2023-08-12T05:34:55;5.87;;;4.57;;
39620;SDS011;25309;48.686;9.170;2023-08-12T05:37:22;6.57;;;4.70;;
39620;SDS011;25309;48.686;9.170;2023-08-12T05:39:50;6.90;;;5.13;;
39620;SDS011;25309;48.686;9.170;2023-08-12T05:42:17;6.30;;;4.80;;
39620;SDS011;25309;48.686;9.170;2023-08-12T05:44:44;5.40;;;4.37;;
39620;SDS011;25309;48.686;9.170;2023-08-12T05:47:11;4.87;;;4.37;;
39620;SDS011;25309;48.686;9.170;2023-08-12T05:49:38;7.63;;;4.93;;
39620;SDS011;25309;48.686;9.170;2023-08-12T05:52:05;4.90;;;4.27;;
39620;SDS011;25309;48.686;9.170;2023-08-12T05:54:32;5.33;;;4.27;;
39620;SDS011;25309;48.686;9.170;2023-08-12T05:57:01;5.67;;;4.70;;
39620;SDS011;25309;48.686;9.170;2023-08-12T05:59:29;6.33;;;4.57;;
39620;SDS011;25309;48.686;9.170;2023-08-12T06:01:56;5.77;;;4.80;;
39620;SDS011;25309;48.686;9.170;2023-08-12T06:04:23;5.20;;;4.33;;
39620;SDS011;25309;48.686;9.170;2023-08-12T06:06:50;5.60;;;4.40;;
39620;SDS011;25309;48.686;9.170;2023-08-12T06:09:17;6.40;;;4.87;;
39620;SDS011;25309;48.686;9.170;2023-08-12T06:11:44;5.87;;;4.87;;
39620;SDS011;25309;48.686;9.170;2023-08-12T06:14:12;6.23;;;4.90;;
39620;SDS011;25309;48.686;9.170;2023-08-12T06:16:39;5.90;;;5.27;;
39620;SDS011;25309;48.686;9.170;2023-08-12T06:19:06;5.33;;;4.77;;
39620;SDS011;25309;48.686;9.170;2023-08-12T06:21:33;5.50;;;4.77;;
39620;SDS011;25309;48.686;9.170;2023-08-12T06:24:00;7.13;;;4.80;;
39620;SDS011;25309;48.686;9.170;2023-08-12T06:26:27;5.50;;;4.53;;
39620;SDS011;25309;48.686;9.170;2023-08-12T06:28:55;7.20;;;5.10;;
39620;SDS011;25309;48.686;9.170;2023-08-12T06:31:23;10.93;;;5.47;;
39620;SDS011;25309;48.686;9.170;2023-08-12T06:33:50;7.63;;;4.70;;
39620;SDS011;25309;48.686;9.170;2023-08-12T06:36:17;6.93;;;5.03;;
39620;SDS011;25309;48.686;9.170;2023-08-12T06:38:44;6.00;;;5.40;;
39620;SDS011;25309;48.686;9.170;2023-08-12T06:41:11;6.37;;;5.00;;
39620;SDS011;25309;48.686;9.170;2023-08-12T06:43:38;7.93;;;5.40;;
39620;SDS011;25309;48.686;9.170;2023-08-12T06:46:05;6.23;;;4.90;;
39620;SDS011;25309;48.686;9.170;2023-08-12T06:48:33;5.30;;;4.77;;
39620;SDS011;25309;48.686;9.170;2023-08-12T06:51:00;6.77;;;5.00;;
39620;SDS011;25309;48.686;9.170;2023-08-12T06:53:33;7.00;;;4.80;;
39620;SDS011;25309;48.686;9.170;2023-08-12T06:56:00;5.57;;;4.80;;
39620;SDS011;25309;48.686;9.170;2023-08-12T06:58:27;6.17;;;5.10;;
39620;SDS011;25309;48.686;9.170;2023-08-12T07:00:54;5.93;;;4.70;;
39620;SDS011;25309;48.686;9.170;2023-08-12T07:03:21;6.27;;;4.13;;
39620;SDS011;25309;48.686;9.170;2023-08-12T07:05:49;5.80;;;5.20;;
39620;SDS011;25309;48.686;9.170;2023-08-12T07:08:16;6.70;;;4.83;;
39620;SDS011;25309;48.686;9.170;2023-08-12T07:10:44;7.70;;;5.47;;
39620;SDS011;25309;48.686;9.170;2023-08-12T07:13:11;10.40;;;5.27;;
39620;SDS011;25309;48.686;9.170;2023-08-12T07:15:38;7.30;;;4.80;;
39620;SDS011;25309;48.686;9.170;2023-08-12T07:18:06;5.57;;;4.73;;
39620;SDS011;25309;48.686;9.170;2023-08-12T07:20:33;5.50;;;5.00;;
39620;SDS011;25309;48.686;9.170;2023-08-12T07:23:01;7.20;;;4.67;;
39620;SDS011;25309;48.686;9.170;2023-08-12T07:25:28;5.20;;;4.70;;
39620;SDS011;25309;48.686;9.170;2023-08-12T07:27:55;6.23;;;4.33;;
39620;SDS011;25309;48.686;9.170;2023-08-12T07:30:22;4.90;;;4.20;;
39620;SDS011;25309;48.686;9.170;2023-08-12T07:32:49;4.97;;;4.20;;
39620;SDS011;25309;48.686;9.170;2023-08-12T07:35:16;5.10;;;4.07;;
39620;SDS011;25309;48.686;9.170;2023-08-12T07:37:43;5.77;;;4.13;;
39620;SDS011;25309;48.686;9.170;2023-08-12T07:40:11;5.23;;;4.27;;
39620;SDS011;25309;48.686;9.170;2023-08-12T07:42:39;4.40;;;3.67;;
39620;SDS011;25309;48.686;9.170;2023-08-12T07:45:06;6.17;;;3.53;;
39620;SDS011;25309;48.686;9.170;2023-08-12T07:47:35;5.17;;;4.00;;
39620;SDS011;25309;48.686;9.170;2023-08-12T07:50:05;4.93;;;3.77;;
39620;SDS011;25309;48.686;9.170;2023-08-12T07:52:33;5.17;;;3.80;;
39620;SDS011;25309;48.686;9.170;2023-08-12T07:55:00;6.43;;;3.90;;
39620;SDS011;25309;48.686;9.170;2023-08-12T07:57:28;4.97;;;3.97;;
39620;SDS011;25309;48.686;9.170;2023-08-12T07:59:55;4.17;;;3.57;;
39620;SDS011;25309;48.686;9.170;2023-08-12T08:02:22;4.60;;;3.83;;
39620;SDS011;25309;48.686;9.170;2023-08-12T08:04:49;6.53;;;3.70;;
39620;SDS011;25309;48.686;9.170;2023-08-12T08:07:16;4.20;;;3.60;;
39620;SDS011;25309;48.686;9.170;2023-08-12T08:09:43;3.50;;;3.20;;
39620;SDS011;25309;48.686;9.170;2023-08-12T08:12:10;6.57;;;3.60;;
39620;SDS011;25309;48.686;9.170;2023-08-12T08:14:40;4.27;;;3.50;;
39620;SDS011;25309;48.686;9.170;2023-08-12T08:17:07;4.23;;;3.50;;
39620;SDS011;25309;48.686;9.170;2023-08-12T08:19:34;5.63;;;3.50;;
39620;SDS011;25309;48.686;9.170;2023-08-12T08:22:01;4.67;;;3.20;;
39620;SDS011;25309;48.686;9.170;2023-08-12T08:24:29;3.90;;;3.50;;
39620;SDS011;25309;48.686;9.170;2023-08-12T08:26:56;4.93;;;3.27;;
39620;SDS011;25309;48.686;9.170;2023-08-12T08:29:23;4.00;;;3.50;;
39620;SDS011;25309;48.686;9.170;2023-08-12T08:31:52;4.40;;;3.17;;
39620;SDS011;25309;48.686;9.170;2023-08-12T08:34:19;3.57;;;3.00;;
39620;SDS011;25309;48.686;9.170;2023-08-12T08:36:46;4.47;;;3.37;;
39620;SDS011;25309;48.686;9.170;2023-08-12T08:39:13;3.80;;;3.30;;
39620;SDS011;25309;48.686;9.170;2023-08-12T08:41:40;3.13;;;2.83;;
39620;SDS011;25309;48.686;9.170;2023-08-12T08:44:08;4.03;;;3.00;;
39620;SDS011;25309;48.686;9.170;2023-08-12T08:46:35;4.73;;;2.93;;
39620;SDS011;25309;48.686;9.170;2023-08-12T08:49:04;3.93;;;3.10;;
39620;SDS011;25309;48.686;9.170;2023-08-12T08:51:33;3.50;;;3.00;;
39620;SDS011;25309;48.686;9.170;2023-08-12T08:54:02;3.27;;;2.93;;
39620;SDS011;25309;48.686;9.170;2023-08-12T08:56:30;4.27;;;3.00;;
39620;SDS011;25309;48.686;9.170;2023-08-12T08:59:07;4.40;;;2.90;;
39620;SDS011;25309;48.686;9.170;2023-08-12T09:01:34;3.87;;;2.80;;
39620;SDS011;25309;48.686;9.170;2023-08-12T09:04:02;3.97;;;2.90;;
39620;SDS011;25309;48.686;9.170;2023-08-12T09:06:31;3.23;;;2.63;;
39620;SDS011;25309;48.686;9.170;2023-08-12T09:09:01;3.97;;;3.20;;
39620;SDS011;25309;48.686;9.170;2023-08-12T09:11:31;4.30;;;3.03;;
39620;SDS011;25309;48.686;9.170;2023-08-12T09:14:00;3.43;;;3.00;;
39620;SDS011;25309;48.686;9.170;2023-08-12T09:16:27;4.07;;;2.97;;
39620;SDS011;25309;48.686;9.170;2023-08-12T09:18:55;3.80;;;2.80;;
39620;SDS011;25309;48.686;9.170;2023-08-12T09:21:23;3.10;;;2.80;;
39620;SDS011;25309;48.686;9.170;2023-08-12T09:23:51;3.63;;;2.63;;
39620;SDS011;25309;48.686;9.170;2023-08-12T09:26:18;4.13;;;2.83;;
39620;SDS011;25309;48.686;9.170;2023-08-12T09:28:47;4.47;;;2.80;;
39620;SDS011;25309;48.686;9.170;2023-08-12T09:31:21;3.50;;;2.70;;
39620;SDS011;25309;48.686;9.170;2023-08-12T09:33:50;4.50;;;3.00;;
39620;SDS011;25309;48.686;9.170;2023-08-12T09:36:18;4.10;;;2.90;;
39620;SDS011;25309;48.686;9.170;2023-08-12T09:38:47;3.77;;;2.63;;
39620;SDS011;25309;48.686;9.170;2023-08-12T09:41:14;3.23;;;2.50;;
39620;SDS011;25309;48.686;9.170;2023-08-12T09:43:41;4.30;;;2.70;;
39620;SDS011;25309;48.686;9.170;2023-08-12T09:46:12;4.30;;;2.60;;
39620;SDS011;25309;48.686;9.170;2023-08-12T09:48:42;3.60;;;2.47;;
39620;SDS011;25309;48.686;9.170;2023-08-12T09:51:09;2.97;;;2.63;;
39620;SDS011;25309;48.686;9.170;2023-08-12T09:53:37;3.37;;;2.50;;
39620;SDS011;25309;48.686;9.170;2023-08-12T09:56:06;3.47;;;2.50;;
39620;SDS011;25309;48.686;9.170;2023-08-12T09:58:35;3.50;;;2.80;;
39620;SDS011;25309;48.686;9.170;2023-08-12T10:01:06;3.93;;;2.70;;
39620;SDS011;25309;48.686;9.170;2023-08-12T10:03:37;3.50;;;2.53;;
39620;SDS011;25309;48.686;9.170;2023-08-12T10:06:04;3.83;;;2.67;;
39620;SDS011;25309;48.686;9.170;2023-08-12T10:08:31;3.07;;;2.57;;
39620;SDS011;25309;48.686;9.170;2023-08-12T10:11:00;3.10;;;2.80;;
39620;SDS011;25309;48.686;9.170;2023-08-12T10:16:38;3.80;;;2.70;;
39620;SDS011;25309;48.686;9.170;2023-08-12T10:19:06;4.73;;;3.07;;
39620;SDS011;25309;48.686;9.170;2023-08-12T10:21:40;3.97;;;2.90;;
39620;SDS011;25309;48.686;9.170;2023-08-12T10:24:08;3.63;;;2.80;;
39620;SDS011;25309;48.686;9.170;2023-08-12T10:26:36;3.10;;;2.50;;
39620;SDS011;25309;48.686;9.170;2023-08-12T10:29:04;4.13;;;3.03;;
39620;SDS011;25309;48.686;9.170;2023-08-12T10:31:32;3.43;;;2.83;;
39620;SDS011;25309;48.686;9.170;2023-08-12T10:33:59;4.30;;;3.00;;
39620;SDS011;25309;48.686;9.170;2023-08-12T10:36:27;3.07;;;2.77;;
39620;SDS011;25309;48.686;9.170;2023-08-12T10:38:55;3.93;;;2.93;;
39620;SDS011;25309;48.686;9.170;2023-08-12T10:41:23;4.37;;;3.20;;
39620;SDS011;25309;48.686;9.170;2023-08-12T10:43:51;5.17;;;3.10;;
39620;SDS011;25309;48.686;9.170;2023-08-12T10:46:24;4.37;;;3.37;;
39620;SDS011;25309;48.686;9.170;2023-08-12T10:48:58;5.07;;;3.37;;
39620;SDS011;25309;48.686;9.170;2023-08-12T10:51:41;3.83;;;3.00;;
39620;SDS011;25309;48.686;9.170;2023-08-12T10:54:14;4.70;;;3.20;;
39620;SDS011;25309;48.686;9.170;2023-08-12T10:59:47;3.57;;;2.93;;
39620;SDS011;25309;48.686;9.170;2023-08-12T11:02:18;6.87;;;3.50;;
39620;SDS011;25309;48.686;9.170;2023-08-12T11:04:49;6.03;;;3.00;;
39620;SDS011;25309;48.686;9.170;2023-08-12T11:07:19;5.23;;;3.40;;
39620;SDS011;25309;48.686;9.170;2023-08-12T11:09:50;4.87;;;3.00;;
39620;SDS011;25309;48.686;9.170;2023-08-12T11:12:27;3.60;;;3.03;;
39620;SDS011;25309;48.686;9.170;2023-08-12T11:14:57;5.63;;;3.13;;
39620;SDS011;25309;48.686;9.170;2023-08-12T11:17:32;4.83;;;3.10;;
39620;SDS011;25309;48.686;9.170;2023-08-12T11:20:02;3.87;;;2.97;;
39620;SDS011;25309;48.686;9.170;2023-08-12T11:22:31;3.73;;;3.33;;
39620;SDS011;25309;48.686;9.170;2023-08-12T11:24:59;4.97;;;3.23;;
39620;SDS011;25309;48.686;9.170;2023-08-12T11:27:27;4.13;;;3.23;;
39620;SDS011;25309;48.686;9.170;2023-08-12T11:29:54;5.30;;;3.20;;
39620;SDS011;25309;48.686;9.170;2023-08-12T11:32:21;4.23;;;3.37;;
39620;SDS011;25309;48.686;9.170;2023-08-12T11:34:48;4.27;;;3.50;;
39620;SDS011;25309;48.686;9.170;2023-08-12T11:37:17;4.80;;;3.27;;
39620;SDS011;25309;48.686;9.170;2023-08-12T11:39:44;4.20;;;3.40;;
39620;SDS011;25309;48.686;9.170;2023-08-12T11:42:11;3.37;;;2.90;;
39620;SDS011;25309;48.686;9.170;2023-08-12T11:44:39;3.53;;;2.60;;
39620;SDS011;25309;48.686;9.170;2023-08-12T11:47:07;4.80;;;3.20;;
39620;SDS011;25309;48.686;9.170;2023-08-12T11:49:34;4.35;;;2.60;;
39620;SDS011;25309;48.686;9.170;2023-08-12T11:52:01;3.33;;;2.60;;
39620;SDS011;25309;48.686;9.170;2023-08-12T11:54:31;3.93;;;2.50;;
39620;SDS011;25309;48.686;9.170;2023-08-12T11:56:58;3.63;;;2.57;;
39620;SDS011;25309;48.686;9.170;2023-08-12T11:59:25;4.45;;;2.60;;
39620;SDS011;25309;48.686;9.170;2023-08-12T12:01:54;3.70;;;2.47;;
39620;SDS011;25309;48.686;9.170;2023-08-12T12:04:21;3.95;;;2.53;;
39620;SDS011;25309;48.686;9.170;2023-08-12T12:06:49;4.93;;;2.65;;
39620;SDS011;25309;48.686;9.170;2023-08-12T12:09:16;3.92;;;2.75;;
39620;SDS011;25309;48.686;9.170;2023-08-12T12:11:46;3.37;;;2.60;;
39620;SDS011;25309;48.686;9.170;2023-08-12T12:14:13;4.53;;;2.75;;
39620;SDS011;25309;48.686;9.170;2023-08-12T12:16:40;4.50;;;2.63;;
39620;SDS011;25309;48.686;9.170;2023-08-12T12:19:09;4.23;;;2.90;;
39620;SDS011;25309;48.686;9.170;2023-08-12T12:21:39;5.60;;;2.80;;
39620;SDS011;25309;48.686;9.170;2023-08-12T12:24:07;6.47;;;2.83;;
39620;SDS011;25309;48.686;9.170;2023-08-12T12:26:34;4.67;;;2.90;;
39620;SDS011;25309;48.686;9.170;2023-08-12T12:29:03;4.67;;;2.83;;
39620;SDS011;25309;48.686;9.170;2023-08-12T12:31:32;6.73;;;3.00;;
39620;SDS011;25309;48.686;9.170;2023-08-12T12:34:00;5.33;;;3.30;;
39620;SDS011;25309;48.686;9.170;2023-08-12T12:36:27;4.23;;;3.03;;
39620;SDS011;25309;48.686;9.170;2023-08-12T12:38:54;5.83;;;3.90;;
39620;SDS011;25309;48.686;9.170;2023-08-12T12:41:21;5.33;;;3.63;;
39620;SDS011;25309;48.686;9.170;2023-08-12T12:43:48;6.83;;;4.33;;
39620;SDS011;25309;48.686;9.170;2023-08-12T12:46:17;6.43;;;4.57;;
39620;SDS011;25309;48.686;9.170;2023-08-12T12:48:44;5.87;;;3.90;;
39620;SDS011;25309;48.686;9.170;2023-08-12T12:51:11;6.07;;;3.70;;
39620;SDS011;25309;48.686;9.170;2023-08-12T12:53:38;5.70;;;4.17;;
39620;SDS011;25309;48.686;9.170;2023-08-12T12:56:06;5.43;;;4.57;;
39620;SDS011;25309;48.686;9.170;2023-08-12T12:58:33;5.40;;;4.10;;
39620;SDS011;25309;48.686;9.170;2023-08-12T13:01:01;4.50;;;3.13;;
39620;SDS011;25309;48.686;9.170;2023-08-12T13:03:30;6.23;;;3.80;;
39620;SDS011;25309;48.686;9.170;2023-08-12T13:05:58;7.77;;;4.67;;
39620;SDS011;25309;48.686;9.170;2023-08-12T13:08:25;6.70;;;3.33;;
39620;SDS011;25309;48.686;9.170;2023-08-12T13:10:52;5.63;;;3.33;;
39620;SDS011;25309;48.686;9.170;2023-08-12T13:13:19;5.67;;;3.60;;
39620;SDS011;25309;48.686;9.170;2023-08-12T13:15:46;8.17;;;4.17;;
39620;SDS011;25309;48.686;9.170;2023-08-12T13:18:14;6.80;;;6.00;;
39620;SDS011;25309;48.686;9.170;2023-08-12T13:20:42;6.73;;;5.60;;
39620;SDS011;25309;48.686;9.170;2023-08-12T13:23:09;5.80;;;4.07;;
39620;SDS011;25309;48.686;9.170;2023-08-12T13:25:37;5.17;;;3.50;;
39620;SDS011;25309;48.686;9.170;2023-08-12T13:28:04;5.40;;;3.40;;
39620;SDS011;25309;48.686;9.170;2023-08-12T13:30:31;5.07;;;2.77;;
39620;SDS011;25309;48.686;9.170;2023-08-12T13:32:59;8.27;;;5.20;;
39620;SDS011;25309;48.686;9.170;2023-08-12T13:35:27;7.27;;;4.07;;
39620;SDS011;25309;48.686;9.170;2023-08-12T13:37:56;6.07;;;4.00;;
39620;SDS011;25309;48.686;9.170;2023-08-12T13:40:23;4.67;;;3.07;;
39620;SDS011;25309;48.686;9.170;2023-08-12T13:42:50;5.53;;;3.27;;
39620;SDS011;25309;48.686;9.170;2023-08-12T13:45:17;5.20;;;3.73;;
39620;SDS011;25309;48.686;9.170;2023-08-12T13:47:44;5.20;;;3.50;;
39620;SDS011;25309;48.686;9.170;2023-08-12T13:50:11;6.60;;;3.83;;
39620;SDS011;25309;48.686;9.170;2023-08-12T13:52:39;6.27;;;3.10;;
39620;SDS011;25309;48.686;9.170;2023-08-12T13:55:08;6.00;;;2.20;;
39620;SDS011;25309;48.686;9.170;2023-08-12T13:57:35;3.67;;;2.33;;
39620;SDS011;25309;48.686;9.170;2023-08-12T14:00:03;4.03;;;2.30;;
39620;SDS011;25309;48.686;9.170;2023-08-12T14:02:41;2.80;;;1.90;;
39620;SDS011;25309;48.686;9.170;2023-08-12T14:05:08;4.57;;;2.20;;
39620;SDS011;25309;48.686;9.170;2023-08-12T14:07:36;2.97;;;2.03;;
39620;SDS011;25309;48.686;9.170;2023-08-12T14:10:04;3.53;;;2.07;;
39620;SDS011;25309;48.686;9.170;2023-08-12T14:12:33;3.23;;;2.13;;
39620;SDS011;25309;48.686;9.170;2023-08-12T14:15:00;3.97;;;1.90;;
39620;SDS011;25309;48.686;9.170;2023-08-12T14:17:27;2.73;;;2.10;;
39620;SDS011;25309;48.686;9.170;2023-08-12T14:19:54;2.83;;;2.17;;
39620;SDS011;25309;48.686;9.170;2023-08-12T14:22:21;4.37;;;2.30;;
39620;SDS011;25309;48.686;9.170;2023-08-12T14:24:48;2.83;;;2.10;;
39620;SDS011;25309;48.686;9.170;2023-08-12T14:27:15;2.97;;;2.13;;
39620;SDS011;25309;48.686;9.170;2023-08-12T14:29:45;2.50;;;2.00;;
39620;SDS011;25309;48.686;9.170;2023-08-12T14:32:12;2.57;;;1.90;;
39620;SDS011;25309;48.686;9.170;2023-08-12T14:34:42;2.80;;;1.97;;
39620;SDS011;25309;48.686;9.170;2023-08-12T14:37:11;3.93;;;2.30;;
39620;SDS011;25309;48.686;9.170;2023-08-12T14:39:39;2.47;;;2.07;;
39620;SDS011;25309;48.686;9.170;2023-08-12T14:42:06;3.13;;;1.97;;
39620;SDS011;25309;48.686;9.170;2023-08-12T14:44:35;3.20;;;2.60;;
39620;SDS011;25309;48.686;9.170;2023-08-12T14:47:04;3.07;;;2.10;;
39620;SDS011;25309;48.686;9.170;2023-08-12T14:49:32;3.60;;;2.10;;
39620;SDS011;25309;48.686;9.170;2023-08-12T14:51:58;2.60;;;1.87;;
39620;SDS011;25309;48.686;9.170;2023-08-12T14:54:26;2.97;;;1.93;;
39620;SDS011;25309;48.686;9.170;2023-08-12T14:56:53;3.00;;;1.90;;
39620;SDS011;25309;48.686;9.170;2023-08-12T14:59:19;2.53;;;1.70;;